Time;durP1;ratioP1;P1;durP2;ratioP2;P2;SDS_P1;SDS_P2;PMS_P1;PMS_P2;Temp;Humidity;BMP_temperature;BMP_pressure;BME280_temperature;BME280_humidity;BME280_pressure;Samples;Min_cycle;Max_cycle;Signal;HPM_P1;HPM_P2
2023/07/17 00:02:20;;;;;;;11.60;4.47;;;;;;;16.02;85.35;101498.34;5014002;28;20446;-62
2023/07/17 00:04:46;;;;;;;8.05;4.03;;;;;;;16.01;85.26;101502.03;5022642;28;20021;-62
2023/07/17 00:07:11;;;;;;;9.95;4.55;;;;;;;15.98;85.58;101503.25;5020074;28;20558;-62
2023/07/17 00:09:37;;;;;;;8.98;4.28;;;;;;;15.97;85.41;101506.13;5017470;28;20021;-62
2023/07/17 00:12:03;;;;;;;7.72;4.13;;;;;;;15.94;85.91;101501.97;5025572;28;20052;-62
2023/07/17 00:14:29;;;;;;;6.28;4.05;;;;;;;15.91;85.78;101494.31;5025362;28;20022;-62
2023/07/17 00:16:54;;;;;;;10.15;4.32;;;;;;;15.88;86.12;101497.34;5010078;28;20554;-62
2023/07/17 00:19:19;;;;;;;9.10;4.40;;;;;;;15.88;86.37;101499.19;5012725;28;20083;-62
2023/07/17 00:21:44;;;;;;;7.97;4.53;;;;;;;15.85;86.23;101503.09;5022059;28;20033;-62
2023/07/17 00:24:10;;;;;;;7.80;4.38;;;;;;;15.84;86.13;101503.28;5021825;28;20140;-62
2023/07/17 00:26:35;;;;;;;5.90;4.03;;;;;;;15.80;86.56;101506.34;5025088;28;20033;-62
2023/07/17 00:29:28;;;;;;;11.48;4.75;;;;;;;15.77;86.50;101506.72;5017360;28;20048;-62
2023/07/17 00:31:54;;;;;;;7.65;4.22;;;;;;;15.75;86.70;101503.41;5023961;28;20060;-62
2023/07/17 00:34:19;;;;;;;10.23;4.55;;;;;;;15.72;87.09;101498.44;5023451;28;20082;-62
2023/07/17 00:36:45;;;;;;;10.20;4.30;;;;;;;15.73;86.86;101492.06;5567617;22;20290;-62
2023/07/17 00:39:11;;;;;;;11.07;4.60;;;;;;;15.72;87.38;101502.94;5026565;28;20041;-61
2023/07/17 00:41:36;;;;;;;8.15;4.40;;;;;;;15.72;87.16;101502.94;5046173;28;20405;-61
2023/07/17 00:44:01;;;;;;;10.30;4.82;;;;;;;15.69;87.31;101508.69;5014697;28;20065;-61
2023/07/17 00:46:27;;;;;;;8.45;4.43;;;;;;;15.67;87.82;101502.69;4990743;28;20026;-62
2023/07/17 00:48:53;;;;;;;12.90;4.80;;;;;;;15.63;87.90;101499.56;4987200;28;20399;-62
2023/07/17 00:51:18;;;;;;;11.00;4.93;;;;;;;15.61;88.05;101506.94;4995883;28;20141;-61
2023/07/17 00:53:44;;;;;;;9.60;5.18;;;;;;;15.57;88.00;101510.97;4984352;28;20036;-62
2023/07/17 00:56:10;;;;;;;9.35;5.00;;;;;;;15.53;88.39;101515.03;4985479;28;20075;-61
2023/07/17 00:58:36;;;;;;;7.53;4.78;;;;;;;15.50;88.80;101510.88;4989939;28;20034;-61
2023/07/17 01:01:03;;;;;;;9.77;5.05;;;;;;;15.50;88.93;101512.72;4987337;28;20029;-61
2023/07/17 01:03:29;;;;;;;8.02;4.55;;;;;;;15.47;88.89;101518.47;4988147;28;20473;-61
2023/07/17 01:05:56;;;;;;;9.10;4.80;;;;;;;15.43;88.91;101520.69;4988833;28;20033;-61
2023/07/17 01:08:22;;;;;;;9.88;5.00;;;;;;;15.40;89.24;101518.38;4989886;28;20041;-62
2023/07/17 01:10:48;;;;;;;9.32;4.88;;;;;;;15.36;89.27;101524.28;4985799;28;20018;-61
2023/07/17 01:13:14;;;;;;;9.63;4.97;;;;;;;15.32;89.24;101529.16;4996631;28;20526;-61
2023/07/17 01:15:39;;;;;;;9.52;4.85;;;;;;;15.28;89.27;101527.03;4993001;28;20034;-61
2023/07/17 01:18:04;;;;;;;9.95;4.50;;;;;;;15.27;89.35;101525.38;4984220;28;20030;-61
2023/07/17 01:20:30;;;;;;;10.50;4.78;;;;;;;15.25;89.50;101522.06;4987833;28;20258;-61
2023/07/17 01:22:59;;;;;;;6.05;4.18;;;;;;;15.22;89.22;101530.47;4986740;28;20510;-62
2023/07/17 01:25:24;;;;;;;9.20;4.30;;;;;;;15.16;89.34;101524.84;4987845;28;20057;-61
2023/07/17 01:27:50;;;;;;;8.68;4.15;;;;;;;15.12;89.41;101526.22;4992080;28;20108;-62
2023/07/17 01:30:15;;;;;;;10.88;4.72;;;;;;;15.09;89.44;101529.25;4991659;28;20034;-61
2023/07/17 01:32:40;;;;;;;8.52;4.35;;;;;;;15.05;89.91;101538.69;4988677;28;20033;-62
2023/07/17 01:35:06;;;;;;;9.57;4.32;;;;;;;15.02;89.56;101538.19;4987778;28;20037;-61
2023/07/17 01:37:32;;;;;;;7.32;4.00;;;;;;;14.98;89.55;101531.53;4988607;28;20117;-62
2023/07/17 01:39:57;;;;;;;9.93;4.32;;;;;;;14.97;90.13;101537.91;4987406;28;20029;-61
2023/07/17 01:42:22;;;;;;;10.88;4.28;;;;;;;14.94;89.81;101543.63;4993377;28;20045;-62
2023/07/17 01:44:47;;;;;;;8.32;4.43;;;;;;;14.93;90.03;101544.63;4988300;28;20021;-61
2023/07/17 01:47:13;;;;;;;8.23;4.35;;;;;;;14.88;90.16;101540.66;4986187;28;20038;-62
2023/07/17 01:49:38;;;;;;;8.82;4.18;;;;;;;14.86;90.27;101539.19;4981855;28;20510;-61
2023/07/17 01:52:03;;;;;;;10.52;4.97;;;;;;;14.82;90.05;101536.06;4987439;28;20022;-61
2023/07/17 01:54:29;;;;;;;11.23;4.60;;;;;;;14.80;89.69;101537.25;4993715;28;20080;-61
2023/07/17 01:56:54;;;;;;;8.10;4.22;;;;;;;14.75;90.52;101526.28;4986877;28;20030;-62
2023/07/17 01:59:19;;;;;;;7.88;4.35;;;;;;;14.72;90.89;101526.59;4986710;28;20045;-61
2023/07/17 02:01:45;;;;;;;10.68;4.00;;;;;;;14.70;90.56;101536.66;4987424;28;20034;-61
2023/07/17 02:04:10;;;;;;;10.70;4.43;;;;;;;14.66;90.29;101527.31;4988357;28;21944;-62
2023/07/17 02:06:35;;;;;;;8.07;4.00;;;;;;;14.64;90.75;101530.19;4986156;28;20398;-61
2023/07/17 02:09:01;;;;;;;9.80;4.80;;;;;;;14.61;90.86;101535.06;4997184;28;21035;-61
2023/07/17 02:11:29;;;;;;;9.55;4.35;;;;;;;14.55;90.73;101536.63;4997042;28;20018;-61
2023/07/17 02:13:55;;;;;;;11.48;4.70;;;;;;;14.51;90.93;101536.16;4998684;28;20418;-62
2023/07/17 02:16:20;;;;;;;9.50;4.55;;;;;;;14.49;91.11;101537.34;5002014;28;20026;-61
2023/07/17 02:18:45;;;;;;;12.27;5.40;;;;;;;14.44;91.06;101535.19;4993119;28;20116;-62
2023/07/17 02:21:11;;;;;;;9.23;4.88;;;;;;;14.42;91.07;101528.31;4993297;28;20038;-62
2023/07/17 02:23:36;;;;;;;10.13;4.50;;;;;;;14.37;91.64;101539.56;4995505;28;20034;-62
2023/07/17 02:26:03;;;;;;;9.98;4.68;;;;;;;14.35;91.94;101540.75;5002110;28;20026;-62
2023/07/17 02:28:28;;;;;;;11.52;4.53;;;;;;;14.31;92.12;101542.94;4996200;28;20022;-62
2023/07/17 02:30:53;;;;;;;9.25;4.45;;;;;;;14.27;92.16;101544.31;4998783;28;20041;-61
2023/07/17 02:33:19;;;;;;;12.55;4.65;;;;;;;14.24;92.46;101539.31;4992256;28;20045;-61
2023/07/17 02:35:44;;;;;;;7.93;4.50;;;;;;;14.21;92.59;101543.19;4997181;28;20490;-61
2023/07/17 02:38:09;;;;;;;9.85;5.03;;;;;;;14.20;92.57;101544.19;4996348;28;20065;-61
2023/07/17 02:40:34;;;;;;;10.00;5.03;;;;;;;14.16;92.86;101548.19;4995212;28;20625;-62
2023/07/17 02:43:00;;;;;;;11.02;4.88;;;;;;;14.13;92.70;101542.38;4996649;28;20056;-61
2023/07/17 02:45:25;;;;;;;10.65;5.18;;;;;;;14.11;93.29;101541.72;4994147;28;20150;-61
2023/07/17 02:47:50;;;;;;;11.30;4.78;;;;;;;14.09;93.58;101549.09;4998372;28;20034;-62
2023/07/17 02:50:15;;;;;;;11.85;4.93;;;;;;;14.10;93.89;101553.44;4985576;28;20018;-62
2023/07/17 02:52:41;;;;;;;8.25;4.38;;;;;;;14.09;93.99;101551.75;4994015;28;20033;-62
2023/07/17 02:55:07;;;;;;;9.57;4.68;;;;;;;14.06;93.85;101550.28;4997900;28;20399;-61
2023/07/17 02:57:34;;;;;;;12.85;4.88;;;;;;;14.04;94.15;101548.78;4996510;28;20519;-62
2023/07/17 03:00:12;;;;;;;11.20;5.15;;;;;;;14.02;94.27;101556.16;4999595;28;20026;-62
2023/07/17 03:02:40;;;;;;;15.20;5.68;;;;;;;13.98;94.09;101562.84;4991634;28;20018;-62
2023/07/17 03:05:08;;;;;;;8.35;4.80;;;;;;;13.94;94.38;101560.53;4993861;28;20017;-61
2023/07/17 03:07:35;;;;;;;9.43;4.90;;;;;;;13.89;94.53;101562.91;4991530;28;20026;-61
2023/07/17 03:10:00;;;;;;;12.07;5.18;;;;;;;13.89;94.40;101562.06;4993021;28;20026;-62
2023/07/17 03:12:25;;;;;;;10.43;4.85;;;;;;;13.87;94.85;101558.72;4999255;28;20022;-61
2023/07/17 03:14:51;;;;;;;10.45;4.85;;;;;;;13.84;95.06;101569.75;4996330;28;20506;-61
2023/07/17 03:17:16;;;;;;;12.43;4.90;;;;;;;13.84;95.03;101575.09;4996563;28;20050;-61
2023/07/17 03:19:41;;;;;;;9.10;4.53;;;;;;;13.82;94.80;101577.94;4995637;28;20037;-62
2023/07/17 03:22:06;;;;;;;14.52;5.72;;;;;;;13.81;95.06;101572.75;4985951;28;20097;-61
2023/07/17 03:24:32;;;;;;;12.88;5.00;;;;;;;13.79;95.00;101577.44;5000290;28;20014;-61
2023/07/17 03:26:58;;;;;;;11.27;4.90;;;;;;;13.72;95.11;101574.66;4994331;28;20029;-61
2023/07/17 03:29:24;;;;;;;10.50;5.30;;;;;;;13.73;95.49;101583.50;4996027;28;20117;-62
2023/07/17 03:31:50;;;;;;;10.65;4.80;;;;;;;13.72;95.61;101579.16;4999379;28;20121;-61
2023/07/17 03:34:15;;;;;;;12.63;5.25;;;;;;;13.70;96.02;101576.66;4993932;28;20026;-61
2023/07/17 03:36:40;;;;;;;12.90;5.20;;;;;;;13.70;96.09;101579.34;4998725;28;20032;-61
2023/07/17 03:39:05;;;;;;;12.07;4.57;;;;;;;13.71;95.84;101582.81;4997842;28;20087;-62
2023/07/17 03:41:31;;;;;;;14.45;5.05;;;;;;;13.70;96.09;101579.34;4997915;28;20038;-61
2023/07/17 03:43:58;;;;;;;12.75;4.55;;;;;;;13.67;96.11;101578.84;4995885;28;20018;-61
2023/07/17 03:46:23;;;;;;;11.38;4.65;;;;;;;13.64;96.12;101569.34;5000897;28;20045;-61
2023/07/17 03:48:48;;;;;;;10.80;5.47;;;;;;;13.64;96.00;101574.69;4997992;28;20022;-61
2023/07/17 03:51:14;;;;;;;10.48;5.07;;;;;;;13.63;96.16;101586.38;4990026;28;20057;-61
2023/07/17 03:53:39;;;;;;;10.00;4.72;;;;;;;13.61;96.06;101583.88;4994443;28;20071;-61
2023/07/17 03:56:04;;;;;;;11.52;4.70;;;;;;;13.59;96.44;101585.88;4990888;28;20026;-61
2023/07/17 03:58:30;;;;;;;11.05;4.90;;;;;;;13.59;96.47;101587.72;4989370;28;20033;-62
2023/07/17 04:00:55;;;;;;;11.40;4.90;;;;;;;13.59;96.73;101590.41;4992933;28;20026;-61
2023/07/17 04:03:20;;;;;;;11.88;4.85;;;;;;;13.59;96.50;101587.72;4988699;28;20125;-61
2023/07/17 04:05:47;;;;;;;10.88;4.93;;;;;;;13.57;96.32;101590.53;4989967;28;20025;-61
2023/07/17 04:08:12;;;;;;;11.25;4.70;;;;;;;13.56;96.68;101594.22;4990172;28;20037;-62
2023/07/17 04:10:38;;;;;;;11.27;5.30;;;;;;;13.54;96.97;101592.72;4990320;28;20469;-62
2023/07/17 04:13:03;;;;;;;13.38;5.07;;;;;;;13.53;96.47;101601.72;4990132;28;20544;-61
2023/07/17 04:15:29;;;;;;;10.25;4.78;;;;;;;13.51;96.63;101609.06;4989428;28;20029;-61
2023/07/17 04:17:54;;;;;;;12.40;4.95;;;;;;;13.51;96.94;101607.25;4990074;28;20494;-62
2023/07/17 04:20:19;;;;;;;11.73;5.07;;;;;;;13.49;96.82;101603.91;4987175;28;20057;-62
2023/07/17 04:22:45;;;;;;;10.90;5.15;;;;;;;13.50;96.60;101608.25;4993422;28;20037;-62
2023/07/17 04:25:10;;;;;;;12.38;5.32;;;;;;;13.50;97.01;101605.56;4995475;28;20038;-61
2023/07/17 04:27:35;;;;;;;13.88;5.57;;;;;;;13.54;96.95;101608.72;4990059;28;20563;-62
2023/07/17 04:30:01;;;;;;;9.98;5.00;;;;;;;13.55;96.88;101613.88;4989287;28;20041;-62
2023/07/17 04:32:26;;;;;;;13.57;5.35;;;;;;;13.57;96.70;101619.06;4989833;28;20030;-61
2023/07/17 04:34:51;;;;;;;14.82;5.53;;;;;;;13.57;96.60;101621.72;4989558;28;20030;-61
2023/07/17 04:37:20;;;;;;;15.68;5.60;;;;;;;13.61;96.24;101612.41;5001373;28;20516;-61
2023/07/17 04:39:45;;;;;;;11.00;5.03;;;;;;;13.59;96.32;101609.91;4990877;28;20149;-62
2023/07/17 04:42:10;;;;;;;14.07;5.40;;;;;;;13.68;96.21;101616.03;4996084;28;20033;-61
2023/07/17 04:44:36;;;;;;;13.82;5.50;;;;;;;13.71;95.88;101620.19;4997549;28;20025;-61
2023/07/17 04:47:01;;;;;;;13.15;5.93;;;;;;;13.74;95.47;101622.53;4995528;28;20022;-61
2023/07/17 04:49:26;;;;;;;12.70;5.03;;;;;;;13.76;95.14;101621.34;4994588;28;20018;-62
2023/07/17 04:51:51;;;;;;;14.23;5.25;;;;;;;13.81;94.66;101627.00;4986491;28;20026;-61
2023/07/17 04:54:17;;;;;;;11.50;5.97;;;;;;;13.83;94.29;101627.66;4993212;28;20045;-61
2023/07/17 04:56:42;;;;;;;14.13;6.20;;;;;;;13.88;94.21;101630.66;4988971;28;20036;-61
2023/07/17 04:59:07;;;;;;;13.63;6.07;;;;;;;13.92;93.84;101631.97;4989825;28;20454;-61
2023/07/17 05:01:32;;;;;;;14.48;5.90;;;;;;;13.94;93.65;101634.47;4986295;28;20045;-62
2023/07/17 05:03:58;;;;;;;13.75;6.13;;;;;;;13.97;93.26;101638.63;4993059;28;20402;-61
2023/07/17 05:06:23;;;;;;;14.20;5.75;;;;;;;13.99;92.80;101640.13;4986832;28;20045;-62
2023/07/17 05:08:48;;;;;;;19.05;6.93;;;;;;;14.03;92.55;101643.28;4986717;28;20026;-61
2023/07/17 05:11:13;;;;;;;13.25;6.57;;;;;;;14.06;92.50;101642.91;4995181;28;20037;-61
2023/07/17 05:13:39;;;;;;;12.90;6.30;;;;;;;14.08;92.32;101647.09;4993063;28;20039;-61
2023/07/17 05:16:04;;;;;;;16.73;6.25;;;;;;;14.14;92.21;101650.91;4998903;28;20087;-61
2023/07/17 05:18:30;;;;;;;17.52;6.38;;;;;;;14.17;92.35;101645.22;4991686;28;20042;-62
2023/07/17 05:20:55;;;;;;;14.32;6.18;;;;;;;14.19;91.83;101649.38;4997521;28;20442;-61
2023/07/17 05:23:21;;;;;;;15.23;6.28;;;;;;;14.20;92.03;101650.22;4994897;28;20018;-61
2023/07/17 05:25:57;;;;;;;14.93;6.40;;;;;;;14.24;91.96;101655.03;4990415;28;20696;-61
2023/07/17 05:28:22;;;;;;;13.55;6.57;;;;;;;14.27;91.71;101656.53;4982557;28;20113;-61
2023/07/17 05:30:55;;;;;;;14.98;6.50;;;;;;;14.32;91.50;101653.31;4999940;28;20621;-62
2023/07/17 05:33:22;;;;;;;16.92;6.95;;;;;;;14.36;91.51;101665.31;4999435;28;20403;-61
2023/07/17 05:35:47;;;;;;;13.05;6.18;;;;;;;14.40;90.99;101664.78;4987349;28;20084;-62
2023/07/17 05:38:13;;;;;;;17.45;7.22;;;;;;;14.41;91.26;101663.78;4986164;28;20561;-61
2023/07/17 05:40:40;;;;;;;14.88;6.75;;;;;;;14.50;90.67;101668.13;4988845;28;20030;-62
2023/07/17 05:43:06;;;;;;;17.10;6.53;;;;;;;14.55;90.55;101670.28;4995208;28;20028;-62
2023/07/17 05:45:31;;;;;;;13.38;6.72;;;;;;;14.60;90.48;101673.25;4985074;28;20030;-61
2023/07/17 05:47:56;;;;;;;16.05;6.65;;;;;;;14.66;90.35;101672.53;4990750;28;20438;-61
2023/07/17 05:50:22;;;;;;;17.48;6.22;;;;;;;14.71;90.21;101677.34;4990518;28;20041;-62
2023/07/17 05:52:47;;;;;;;13.48;6.47;;;;;;;14.75;90.14;101676.84;4981186;28;20117;-61
2023/07/17 05:55:12;;;;;;;15.02;5.95;;;;;;;14.80;90.27;101687.00;4985495;28;20042;-61
2023/07/17 05:57:37;;;;;;;16.15;6.20;;;;;;;14.83;89.43;101686.63;4991224;28;20027;-61
2023/07/17 06:00:03;;;;;;;18.17;6.55;;;;;;;14.88;89.44;101681.56;4991940;28;20040;-61
2023/07/17 06:02:29;;;;;;;15.15;6.75;;;;;;;14.91;89.53;101680.38;4983458;28;20026;-61
2023/07/17 06:04:54;;;;;;;14.05;6.10;;;;;;;14.95;89.17;101676.34;4988542;28;20101;-61
2023/07/17 06:07:19;;;;;;;16.38;6.43;;;;;;;14.96;88.91;101684.19;4990181;28;20109;-61
2023/07/17 06:09:45;;;;;;;14.90;6.05;;;;;;;15.00;88.98;101684.66;4991433;28;20109;-62
2023/07/17 06:12:10;;;;;;;14.30;6.03;;;;;;;15.04;88.81;101689.50;4996477;28;20026;-61
2023/07/17 06:14:35;;;;;;;14.35;6.22;;;;;;;15.12;88.86;101688.59;4987997;28;20453;-61
2023/07/17 06:17:01;;;;;;;16.55;6.57;;;;;;;15.16;88.54;101697.91;4991619;28;20026;-61
2023/07/17 06:19:26;;;;;;;15.32;6.28;;;;;;;15.23;88.27;101704.22;4998120;28;20026;-61
2023/07/17 06:21:51;;;;;;;14.55;6.40;;;;;;;15.28;87.76;101709.84;4991028;28;20049;-61
2023/07/17 06:24:16;;;;;;;21.42;6.88;;;;;;;15.32;87.56;101707.63;4990316;28;20022;-61
2023/07/17 06:26:42;;;;;;;15.95;6.32;;;;;;;15.34;87.05;101709.16;4994985;28;20030;-61
2023/07/17 06:29:09;;;;;;;15.55;6.22;;;;;;;15.38;86.80;101726.50;4992854;28;20034;-61
2023/07/17 06:31:35;;;;;;;17.45;7.10;;;;;;;15.43;86.57;101712.56;4995351;28;20089;-61
2023/07/17 06:34:00;;;;;;;16.02;6.80;;;;;;;15.46;86.59;101722.91;4997177;28;20518;-61
2023/07/17 06:36:26;;;;;;;17.38;6.45;;;;;;;15.49;85.36;101714.53;4989480;28;20026;-61
2023/07/17 06:38:51;;;;;;;15.02;6.18;;;;;;;15.51;85.63;101731.25;4987032;28;20031;-61
2023/07/17 06:41:16;;;;;;;18.35;6.70;;;;;;;15.58;85.86;101728.66;4989559;28;20018;-61
2023/07/17 06:43:43;;;;;;;17.13;6.95;;;;;;;15.60;85.37;101737.38;4990132;28;20030;-61
2023/07/17 06:46:08;;;;;;;17.00;6.85;;;;;;;15.65;85.47;101725.13;4991314;28;20030;-61
2023/07/17 06:48:34;;;;;;;15.27;6.45;;;;;;;15.75;85.16;101731.03;4991163;28;20149;-62
2023/07/17 06:50:59;;;;;;;18.75;6.53;;;;;;;15.82;84.81;101735.66;4994664;28;20022;-61
2023/07/17 06:53:24;;;;;;;16.77;6.82;;;;;;;15.85;85.22;101738.81;4988052;28;20037;-61
2023/07/17 06:55:55;;;;;;;14.55;7.10;;;;;;;15.87;84.41;101750.16;4995166;28;20022;-61
2023/07/17 06:58:20;;;;;;;17.35;6.95;;;;;;;15.88;84.03;101741.09;4994798;28;20030;-61
2023/07/17 07:00:45;;;;;;;15.63;7.00;;;;;;;15.93;84.23;101746.78;4990772;28;20029;-61
2023/07/17 07:03:11;;;;;;;17.65;7.53;;;;;;;15.97;84.15;101744.56;4996927;28;20065;-61
2023/07/17 07:05:36;;;;;;;13.18;6.72;;;;;;;15.97;83.33;101744.56;5002344;28;20022;-62
2023/07/17 07:08:03;;;;;;;20.02;6.78;;;;;;;15.97;83.06;101752.59;5007364;28;20026;-61
2023/07/17 07:10:28;;;;;;;17.52;7.35;;;;;;;16.04;82.95;101757.03;5001690;28;20025;-61
2023/07/17 07:12:53;;;;;;;17.55;7.15;;;;;;;16.15;83.00;101760.25;5000867;28;20080;-61
2023/07/17 07:15:18;;;;;;;16.98;7.10;;;;;;;16.23;82.98;101765.53;5000457;28;20030;-61
2023/07/17 07:17:44;;;;;;;13.70;6.85;;;;;;;16.23;82.13;101752.97;4994608;28;20606;-61
2023/07/17 07:20:10;;;;;;;16.33;7.07;;;;;;;16.19;81.68;101761.53;5006747;28;20033;-61
2023/07/17 07:22:35;;;;;;;17.73;6.72;;;;;;;16.22;81.64;101761.19;4990244;28;20026;-61
2023/07/17 07:25:00;;;;;;;15.20;7.45;;;;;;;16.24;81.33;101762.69;5003337;28;20018;-61
2023/07/17 07:27:26;;;;;;;15.45;7.13;;;;;;;16.25;80.87;101763.50;5000379;28;20034;-61
2023/07/17 07:29:51;;;;;;;13.80;6.80;;;;;;;16.26;80.86;101774.03;4986950;28;20084;-61
2023/07/17 07:32:17;;;;;;;16.98;7.03;;;;;;;16.26;80.41;101775.91;4983580;28;20488;-61
2023/07/17 07:34:42;;;;;;;16.63;7.35;;;;;;;16.28;80.84;101781.91;4994099;28;20038;-61
2023/07/17 07:37:08;;;;;;;15.77;7.30;;;;;;;16.33;81.06;101780.31;4989821;28;20030;-61
2023/07/17 07:39:33;;;;;;;14.57;6.38;;;;;;;16.31;80.07;101777.00;5005555;28;20525;-61
2023/07/17 07:41:58;;;;;;;16.42;7.03;;;;;;;16.32;80.17;101775.97;4991647;28;20026;-61
2023/07/17 07:44:23;;;;;;;14.02;6.95;;;;;;;16.40;79.99;101783.91;4995256;28;20033;-62
2023/07/17 07:46:49;;;;;;;18.90;7.03;;;;;;;16.49;79.76;101783.84;4989290;28;20687;-62
2023/07/17 07:49:14;;;;;;;16.98;6.68;;;;;;;16.54;79.55;101786.78;4991533;28;20026;-61
2023/07/17 07:51:40;;;;;;;16.08;6.65;;;;;;;16.61;79.65;101783.16;4987172;28;20030;-61
2023/07/17 07:54:06;;;;;;;14.77;6.90;;;;;;;16.66;79.35;101796.88;4995468;28;20025;-61
2023/07/17 07:56:31;;;;;;;14.10;6.57;;;;;;;16.80;79.72;101797.88;4988917;28;20035;-61
2023/07/17 07:58:56;;;;;;;14.18;5.72;;;;;;;16.93;78.61;101787.28;4990690;28;20093;-61
2023/07/17 08:01:21;;;;;;;14.48;6.20;;;;;;;16.98;78.20;101789.41;4990250;28;20033;-61
2023/07/17 08:03:47;;;;;;;18.58;6.45;;;;;;;17.01;77.72;101792.53;4990857;28;20027;-61
2023/07/17 08:06:12;;;;;;;14.65;6.38;;;;;;;17.06;77.54;101791.13;4993416;28;20493;-61
2023/07/17 08:08:38;;;;;;;18.42;6.53;;;;;;;17.09;77.29;101794.28;4992661;28;20034;-61
2023/07/17 08:11:03;;;;;;;16.23;5.82;;;;;;;17.03;77.09;101785.13;4990254;28;20030;-62
2023/07/17 08:13:28;;;;;;;16.08;6.25;;;;;;;17.12;77.54;101796.59;4989968;28;20088;-62
2023/07/17 08:15:54;;;;;;;15.85;5.95;;;;;;;17.21;76.92;101806.19;4990514;28;20054;-61
2023/07/17 08:18:19;;;;;;;15.65;6.13;;;;;;;17.25;76.09;101791.34;4989397;28;20088;-61
2023/07/17 08:20:44;;;;;;;12.13;5.90;;;;;;;17.29;75.46;101799.84;4990538;28;20402;-61
2023/07/17 08:23:09;;;;;;;18.55;6.07;;;;;;;17.32;75.08;101796.78;4995460;28;20099;-61
2023/07/17 08:25:35;;;;;;;12.80;6.35;;;;;;;17.29;75.08;101799.84;4988129;28;20093;-61
2023/07/17 08:28:00;;;;;;;16.75;6.22;;;;;;;17.22;75.27;101801.66;4989419;28;20451;-61
2023/07/17 08:30:25;;;;;;;13.98;5.80;;;;;;;17.26;75.48;101809.13;4990744;28;20060;-62
2023/07/17 08:32:50;;;;;;;10.07;5.43;;;;;;;17.46;74.48;101822.75;4989486;28;20061;-61
2023/07/17 08:35:16;;;;;;;14.52;5.60;;;;;;;17.69;74.35;101811.84;4996532;28;20022;-60
2023/07/17 08:37:41;;;;;;;14.45;5.88;;;;;;;17.85;73.44;101798.13;4990279;28;20046;-61
2023/07/17 08:40:09;;;;;;;13.02;5.97;;;;;;;17.91;72.54;101809.94;4989283;28;20038;-61
2023/07/17 08:42:36;;;;;;;16.40;5.78;;;;;;;17.94;72.05;101806.88;4986449;28;20374;-61
2023/07/17 08:45:02;;;;;;;11.52;5.35;;;;;;;18.07;71.41;101804.28;4990857;28;20076;-62
2023/07/17 08:47:28;;;;;;;12.20;5.20;;;;;;;18.12;70.67;101814.44;4991217;28;20034;-62
2023/07/17 08:49:54;;;;;;;14.57;4.95;;;;;;;18.12;69.06;101822.50;5004185;28;20102;-62
2023/07/17 08:52:20;;;;;;;15.10;5.45;;;;;;;18.10;69.50;101813.81;4988526;28;20057;-62
2023/07/17 08:54:45;;;;;;;11.05;5.70;;;;;;;18.13;69.96;101818.78;4987816;28;20058;-61
2023/07/17 08:57:11;;;;;;;12.60;4.60;;;;;;;18.23;68.43;101828.19;4995058;28;20021;-62
2023/07/17 08:59:37;;;;;;;13.27;4.55;;;;;;;18.33;67.45;101827.00;4992010;28;20059;-61
2023/07/17 09:02:04;;;;;;;12.73;5.15;;;;;;;18.43;66.62;101830.16;4995259;28;20136;-62
2023/07/17 09:04:33;;;;;;;15.13;5.47;;;;;;;18.52;66.41;101819.06;4998083;28;20387;-62
2023/07/17 09:06:58;;;;;;;;;;;;;;;18.63;65.48;101825.75;4987292;28;20065;-62
2023/07/17 09:09:23;;;;;;;14.37;5.20;;;;;;;18.69;64.76;101814.19;4995913;28;20421;-62
2023/07/17 09:12:11;;;;;;;10.35;5.05;;;;;;;18.73;65.25;101826.19;5005328;28;20356;-62
2023/07/17 09:14:37;;;;;;;11.82;5.13;;;;;;;18.90;65.33;101809.72;4995177;28;20418;-62
2023/07/17 09:17:07;;;;;;;11.57;5.22;;;;;;;18.94;64.79;101809.09;5001121;28;20030;-62
2023/07/17 09:19:33;;;;;;;17.10;4.60;;;;;;;19.02;64.51;101810.78;4996124;28;20030;-61
2023/07/17 09:22:01;;;;;;;9.73;3.95;;;;;;;19.07;63.45;101824.47;4983690;28;20453;-62
2023/07/17 09:24:27;;;;;;;10.25;4.53;;;;;;;19.23;63.35;101823.28;4984546;28;20060;-62
2023/07/17 09:26:56;;;;;;;9.93;4.93;;;;;;;19.29;63.19;101836.75;4989539;28;20642;-62
2023/07/17 09:29:25;;;;;;;9.25;4.72;;;;;;;19.31;63.05;101815.00;4996586;28;20042;-62
2023/07/17 09:31:50;;;;;;;9.10;4.60;;;;;;;19.38;62.88;101819.38;4987069;28;20036;-62
2023/07/17 09:34:16;;;;;;;13.80;4.32;;;;;;;19.44;61.53;101825.81;4981707;28;20030;-62
2023/07/17 09:36:42;;;;;;;13.82;4.88;;;;;;;19.36;61.52;101817.91;4992921;28;20648;-61
2023/07/17 09:39:09;;;;;;;11.25;4.97;;;;;;;19.43;62.35;101818.75;4986509;28;20487;-62
2023/07/17 09:41:34;;;;;;;10.73;4.03;;;;;;;19.59;62.17;101825.63;4982037;28;20507;-61
2023/07/17 09:44:05;;;;;;;11.30;4.47;;;;;;;19.81;61.89;101821.72;4981433;28;20026;-61
2023/07/17 09:46:32;;;;;;;7.82;4.00;;;;;;;19.82;59.74;101822.53;4988245;28;20018;-61
2023/07/17 09:48:58;;;;;;;14.80;4.28;;;;;;;19.77;59.09;101824.00;4997377;28;20667;-62
2023/07/17 09:51:24;;;;;;;9.32;3.95;;;;;;;19.50;58.83;101824.97;4992921;28;20037;-62
2023/07/17 09:53:50;;;;;;;9.70;3.75;;;;;;;19.35;59.35;101827.84;4987211;28;20133;-62
2023/07/17 09:56:20;;;;;;;8.45;4.13;;;;;;;19.55;60.43;101825.22;4986991;28;20030;-61
2023/07/17 09:58:47;;;;;;;9.52;3.63;;;;;;;19.67;59.09;101826.28;4990145;28;20113;-62
2023/07/17 10:01:19;;;;;;;8.90;4.05;;;;;;;19.69;59.29;101826.91;4985347;28;20161;-62
2023/07/17 10:03:46;;;;;;;8.60;3.53;;;;;;;19.74;59.02;101828.97;4989821;28;20034;-62
2023/07/17 10:06:14;;;;;;;8.63;3.90;;;;;;;19.72;57.98;101822.97;4987151;28;20034;-62
2023/07/17 10:08:43;;;;;;;7.70;3.42;;;;;;;19.52;57.03;101822.91;4988060;28;20080;-62
2023/07/17 10:11:09;;;;;;;;;;;;;;;19.36;56.84;101825.97;4988332;28;20034;-61
2023/07/17 10:13:34;;;;;;;10.00;3.75;;;;;;;19.43;57.85;101824.97;4988236;28;20004;-61
2023/07/17 10:16:00;;;;;;;8.13;3.20;;;;;;;19.73;58.62;101822.75;4988081;28;20022;-62
2023/07/17 10:18:25;;;;;;;6.15;3.25;;;;;;;19.93;58.19;101825.44;4992689;28;20104;-61
2023/07/17 10:20:53;;;;;;;11.40;3.90;;;;;;;19.71;56.42;101827.53;4987493;28;20061;-61
2023/07/17 10:23:24;;;;;;;6.38;3.70;;;;;;;19.49;56.65;101823.31;4988947;28;20040;-62
2023/07/17 10:25:49;;;;;;;13.13;3.90;;;;;;;19.61;57.20;101829.78;4986505;28;20069;-62
2023/07/17 10:28:29;;;;;;;8.95;3.47;;;;;;;19.89;55.61;101834.16;4983882;28;20026;-62
2023/07/17 10:30:54;;;;;;;6.72;3.35;;;;;;;19.99;55.04;101832.72;4991567;28;20104;-61
2023/07/17 10:33:22;;;;;;;8.93;3.80;;;;;;;20.14;55.12;101823.56;4988827;28;20026;-62
2023/07/17 10:35:53;;;;;;;6.80;3.67;;;;;;;20.30;54.69;101820.44;4987914;28;20045;-62
2023/07/17 10:38:24;;;;;;;7.55;3.75;;;;;;;20.40;54.31;101815.44;4986294;28;20026;-62
2023/07/17 10:41:20;;;;;;;8.90;3.60;;;;;;;20.50;54.24;101821.22;4986651;28;20649;-62
2023/07/17 10:43:54;;;;;;;8.57;3.55;;;;;;;20.58;53.65;101823.69;4995134;28;20046;-62
2023/07/17 10:46:25;;;;;;;6.50;3.20;;;;;;;20.83;53.13;101823.00;4987466;28;20026;-62
2023/07/17 10:48:50;;;;;;;6.88;3.78;;;;;;;21.09;52.75;101830.94;4987319;28;20033;-62
2023/07/17 10:51:15;;;;;;;6.65;3.30;;;;;;;21.10;52.01;101827.19;4995709;28;20026;-62
2023/07/17 10:53:40;;;;;;;8.38;3.45;;;;;;;21.00;51.44;101816.03;4987352;28;20455;-62
2023/07/17 10:56:06;;;;;;;10.02;3.90;;;;;;;21.11;52.08;101826.19;4989579;28;20032;-62
2023/07/17 10:58:31;;;;;;;8.48;4.30;;;;;;;21.11;51.59;101823.47;4995668;28;20027;-62
2023/07/17 11:00:56;;;;;;;6.78;3.67;;;;;;;21.20;51.88;101822.16;4992375;28;20015;-62
2023/07/17 11:03:26;;;;;;;6.47;3.58;;;;;;;21.26;51.06;101832.13;4988368;28;20030;-62
2023/07/17 11:05:54;;;;;;;8.25;3.70;;;;;;;21.24;50.75;101828.81;4988826;28;20028;-61
2023/07/17 11:08:19;;;;;;;8.02;3.60;;;;;;;21.20;49.93;101819.47;4987742;28;20037;-62
2023/07/17 11:10:45;;;;;;;7.18;3.50;;;;;;;21.21;49.95;101825.69;4987856;28;20022;-61
2023/07/17 11:13:11;;;;;;;8.93;3.80;;;;;;;21.22;50.22;101822.78;4988472;28;20026;-61
2023/07/17 11:15:37;;;;;;;10.57;3.70;;;;;;;21.39;50.97;101825.81;4986849;28;20441;-62